sensor_id;sensor_type;location;lat;lon;timestamp;pressure;altitude;pressure_sealevel;temperature;humidity
57234;BME280;43090;52.604;13.318;2023-05-08T00:02:18;102139.84;;;9.15;77.58
57234;BME280;43090;52.604;13.318;2023-05-08T00:04:45;102139.47;;;9.24;77.53
57234;BME280;43090;52.604;13.318;2023-05-08T00:07:11;102128.44;;;9.32;77.43
57234;BME280;43090;52.604;13.318;2023-05-08T00:09:38;102147.91;;;9.36;77.95
57234;BME280;43090;52.604;13.318;2023-05-08T00:12:05;102118.41;;;9.16;77.32
57234;BME280;43090;52.604;13.318;2023-05-08T00:14:31;102117.56;;;9.16;77.65
57234;BME280;43090;52.604;13.318;2023-05-08T00:16:58;102133.97;;;9.27;77.07
57234;BME280;43090;52.604;13.318;2023-05-08T00:19:24;102133.53;;;9.38;77.10
57234;BME280;43090;52.604;13.318;2023-05-08T00:21:53;102118.28;;;8.99;78.55
57234;BME280;43090;52.604;13.318;2023-05-08T00:24:20;102136.91;;;9.00;78.07
57234;BME280;43090;52.604;13.318;2023-05-08T00:26:46;102146.28;;;9.11;78.17
57234;BME280;43090;52.604;13.318;2023-05-08T00:29:13;102123.38;;;8.83;79.49
57234;BME280;43090;52.604;13.318;2023-05-08T00:31:39;102124.38;;;9.03;78.62
57234;BME280;43090;52.604;13.318;2023-05-08T00:34:06;102150.41;;;9.18;78.03
57234;BME280;43090;52.604;13.318;2023-05-08T00:36:33;102133.13;;;9.06;77.60
57234;BME280;43090;52.604;13.318;2023-05-08T00:38:59;102142.78;;;9.09;77.86
57234;BME280;43090;52.604;13.318;2023-05-08T00:41:25;102138.41;;;8.86;78.37
57234;BME280;43090;52.604;13.318;2023-05-08T00:43:52;102130.09;;;8.93;77.90
57234;BME280;43090;52.604;13.318;2023-05-08T00:46:19;102123.16;;;8.89;78.18
57234;BME280;43090;52.604;13.318;2023-05-08T00:48:45;102156.88;;;9.12;78.31
57234;BME280;43090;52.604;13.318;2023-05-08T00:51:14;102121.94;;;8.96;78.27
57234;BME280;43090;52.604;13.318;2023-05-08T00:53:42;102133.75;;;8.91;76.31
57234;BME280;43090;52.604;13.318;2023-05-08T00:56:12;102120.66;;;8.84;76.41
57234;BME280;43090;52.604;13.318;2023-05-08T00:58:40;102153.69;;;9.04;76.69
57234;BME280;43090;52.604;13.318;2023-05-08T01:01:06;102155.91;;;8.93;76.60
57234;BME280;43090;52.604;13.318;2023-05-08T01:03:34;102158.31;;;8.56;75.73
57234;BME280;43090;52.604;13.318;2023-05-08T01:06:02;102164.38;;;8.60;76.47
57234;BME280;43090;52.604;13.318;2023-05-08T01:08:30;102162.88;;;8.53;77.46
57234;BME280;43090;52.604;13.318;2023-05-08T01:11:30;102159.16;;;8.79;76.76
57234;BME280;43090;52.604;13.318;2023-05-08T01:14:05;102171.03;;;8.72;78.17
57234;BME280;43090;52.604;13.318;2023-05-08T01:16:54;102173.75;;;8.70;78.80
57234;BME280;43090;52.604;13.318;2023-05-08T01:19:37;102161.72;;;8.82;78.81
57234;BME280;43090;52.604;13.318;2023-05-08T01:22:32;102170.22;;;8.92;77.18
57234;BME280;43090;52.604;13.318;2023-05-08T01:25:44;102166.66;;;8.69;77.50
57234;BME280;43090;52.604;13.318;2023-05-08T01:31:23;102152.09;;;8.78;77.41
57234;BME280;43090;52.604;13.318;2023-05-08T01:34:22;102145.06;;;8.53;77.82
57234;BME280;43090;52.604;13.318;2023-05-08T01:51:20;102149.25;;;7.65;83.36
57234;BME280;43090;52.604;13.318;2023-05-08T01:53:55;102165.69;;;8.02;81.60
57234;BME280;43090;52.604;13.318;2023-05-08T01:56:24;102171.03;;;8.26;80.39
57234;BME280;43090;52.604;13.318;2023-05-08T01:58:53;102161.44;;;8.20;80.19
57234;BME280;43090;52.604;13.318;2023-05-08T02:01:23;102169.16;;;8.28;80.65
57234;BME280;43090;52.604;13.318;2023-05-08T02:03:52;102153.00;;;8.09;80.67
57234;BME280;43090;52.604;13.318;2023-05-08T02:06:20;102179.13;;;8.46;79.27
57234;BME280;43090;52.604;13.318;2023-05-08T02:08:48;102181.97;;;8.42;79.73
57234;BME280;43090;52.604;13.318;2023-05-08T02:11:17;102173.50;;;8.30;79.61
57234;BME280;43090;52.604;13.318;2023-05-08T02:13:46;102188.03;;;8.47;80.04
57234;BME280;43090;52.604;13.318;2023-05-08T02:16:14;102186.56;;;8.38;79.27
57234;BME280;43090;52.604;13.318;2023-05-08T02:18:48;102182.56;;;8.50;78.40
57234;BME280;43090;52.604;13.318;2023-05-08T02:21:16;102171.06;;;8.48;77.98
57234;BME280;43090;52.604;13.318;2023-05-08T02:23:44;102175.63;;;8.46;78.38
57234;BME280;43090;52.604;13.318;2023-05-08T02:26:14;102174.06;;;8.39;78.53
57234;BME280;43090;52.604;13.318;2023-05-08T02:28:41;102167.41;;;8.27;79.29
57234;BME280;43090;52.604;13.318;2023-05-08T02:31:09;102175.13;;;8.34;78.87
57234;BME280;43090;52.604;13.318;2023-05-08T02:33:39;102154.59;;;8.13;79.02
57234;BME280;43090;52.604;13.318;2023-05-08T02:36:07;102162.94;;;8.27;78.63
57234;BME280;43090;52.604;13.318;2023-05-08T02:38:37;102156.72;;;8.27;78.09
57234;BME280;43090;52.604;13.318;2023-05-08T02:41:05;102148.75;;;8.03;79.23
57234;BME280;43090;52.604;13.318;2023-05-08T02:43:34;102162.25;;;8.22;78.46
57234;BME280;43090;52.604;13.318;2023-05-08T02:46:09;102155.94;;;8.25;77.67
57234;BME280;43090;52.604;13.318;2023-05-08T02:48:40;102156.91;;;8.22;77.53
57234;BME280;43090;52.604;13.318;2023-05-08T02:51:17;102159.31;;;8.06;78.49
57234;BME280;43090;52.604;13.318;2023-05-08T02:53:49;102159.66;;;7.97;79.33
57234;BME280;43090;52.604;13.318;2023-05-08T02:56:29;102167.81;;;7.92;78.88
57234;BME280;43090;52.604;13.318;2023-05-08T02:59:19;102175.47;;;8.01;80.28
57234;BME280;43090;52.604;13.318;2023-05-08T03:02:21;102173.13;;;7.94;79.16
57234;BME280;43090;52.604;13.318;2023-05-08T03:04:46;102163.97;;;7.76;80.65
57234;BME280;43090;52.604;13.318;2023-05-08T03:07:15;102162.34;;;7.72;80.30
57234;BME280;43090;52.604;13.318;2023-05-08T03:09:46;102170.66;;;7.88;80.20
57234;BME280;43090;52.604;13.318;2023-05-08T03:12:14;102164.97;;;7.73;80.17
57234;BME280;43090;52.604;13.318;2023-05-08T03:14:47;102173.91;;;7.96;79.52
57234;BME280;43090;52.604;13.318;2023-05-08T03:17:18;102177.47;;;7.96;79.45
57234;BME280;43090;52.604;13.318;2023-05-08T03:19:49;102161.09;;;7.82;79.27
57234;BME280;43090;52.604;13.318;2023-05-08T03:22:18;102159.16;;;7.86;79.45
57234;BME280;43090;52.604;13.318;2023-05-08T03:24:46;102161.97;;;7.82;79.52
57234;BME280;43090;52.604;13.318;2023-05-08T03:27:14;102180.22;;;7.93;79.90
57234;BME280;43090;52.604;13.318;2023-05-08T03:29:42;102173.06;;;7.95;78.79
57234;BME280;43090;52.604;13.318;2023-05-08T03:32:09;102180.34;;;7.90;78.34
57234;BME280;43090;52.604;13.318;2023-05-08T03:34:38;102178.78;;;7.59;80.41
57234;BME280;43090;52.604;13.318;2023-05-08T03:37:05;102164.78;;;7.78;80.10
57234;BME280;43090;52.604;13.318;2023-05-08T03:39:32;102171.31;;;7.94;79.19
57234;BME280;43090;52.604;13.318;2023-05-08T03:41:58;102160.81;;;7.64;80.62
57234;BME280;43090;52.604;13.318;2023-05-08T03:44:27;102168.34;;;7.78;79.94
57234;BME280;43090;52.604;13.318;2023-05-08T03:46:55;102185.78;;;7.87;80.00
57234;BME280;43090;52.604;13.318;2023-05-08T03:49:24;102176.09;;;7.59;80.24
57234;BME280;43090;52.604;13.318;2023-05-08T03:51:55;102176.88;;;7.63;80.82
57234;BME280;43090;52.604;13.318;2023-05-08T03:54:22;102185.44;;;7.73;80.13
57234;BME280;43090;52.604;13.318;2023-05-08T03:56:53;102175.19;;;7.60;80.48
57234;BME280;43090;52.604;13.318;2023-05-08T03:59:23;102185.31;;;7.76;80.29
57234;BME280;43090;52.604;13.318;2023-05-08T04:01:58;102183.25;;;7.59;80.82
57234;BME280;43090;52.604;13.318;2023-05-08T04:04:38;102178.16;;;7.76;80.53
57234;BME280;43090;52.604;13.318;2023-05-08T04:09:57;102195.06;;;7.77;80.02
57234;BME280;43090;52.604;13.318;2023-05-08T04:12:32;102184.47;;;7.74;79.68
57234;BME280;43090;52.604;13.318;2023-05-08T04:15:06;102186.56;;;7.65;80.60
57234;BME280;43090;52.604;13.318;2023-05-08T04:20:10;102197.72;;;7.77;80.67
57234;BME280;43090;52.604;13.318;2023-05-08T04:22:39;102187.22;;;7.72;80.78
57234;BME280;43090;52.604;13.318;2023-05-08T04:25:07;102187.97;;;7.76;80.85
57234;BME280;43090;52.604;13.318;2023-05-08T04:27:35;102178.03;;;7.81;80.84
57234;BME280;43090;52.604;13.318;2023-05-08T04:30:01;102191.06;;;7.89;80.54
57234;BME280;43090;52.604;13.318;2023-05-08T04:32:29;102174.31;;;7.85;80.17
57234;BME280;43090;52.604;13.318;2023-05-08T04:34:57;102186.16;;;7.76;81.00
57234;BME280;43090;52.604;13.318;2023-05-08T04:37:25;102198.66;;;7.76;81.77
57234;BME280;43090;52.604;13.318;2023-05-08T04:39:52;102188.63;;;7.57;80.60
57234;BME280;43090;52.604;13.318;2023-05-08T04:42:19;102201.09;;;7.82;80.88
57234;BME280;43090;52.604;13.318;2023-05-08T04:44:46;102216.59;;;7.96;80.94
57234;BME280;43090;52.604;13.318;2023-05-08T04:47:13;102168.72;;;7.67;80.59
57234;BME280;43090;52.604;13.318;2023-05-08T04:49:40;102207.75;;;7.68;80.23
57234;BME280;43090;52.604;13.318;2023-05-08T04:52:06;102222.19;;;7.88;80.20
57234;BME280;43090;52.604;13.318;2023-05-08T04:54:33;102225.44;;;7.73;81.67
57234;BME280;43090;52.604;13.318;2023-05-08T04:57:00;102195.81;;;7.55;79.79
57234;BME280;43090;52.604;13.318;2023-05-08T04:59:26;102229.53;;;7.81;79.33
57234;BME280;43090;52.604;13.318;2023-05-08T05:01:53;102243.06;;;7.77;78.84
57234;BME280;43090;52.604;13.318;2023-05-08T05:04:20;102230.50;;;7.79;80.49
57234;BME280;43090;52.604;13.318;2023-05-08T05:06:47;102242.72;;;7.86;80.03
57234;BME280;43090;52.604;13.318;2023-05-08T05:09:13;102235.13;;;7.74;80.08
57234;BME280;43090;52.604;13.318;2023-05-08T05:11:40;102224.38;;;8.02;78.90
57234;BME280;43090;52.604;13.318;2023-05-08T05:14:07;102230.75;;;7.98;79.90
57234;BME280;43090;52.604;13.318;2023-05-08T05:16:33;102223.69;;;8.21;79.76
57234;BME280;43090;52.604;13.318;2023-05-08T05:19:00;102239.50;;;8.25;80.32
57234;BME280;43090;52.604;13.318;2023-05-08T05:21:27;102220.69;;;7.81;79.99
57234;BME280;43090;52.604;13.318;2023-05-08T05:23:53;102223.81;;;7.92;77.48
57234;BME280;43090;52.604;13.318;2023-05-08T05:26:20;102210.00;;;8.06;78.63
57234;BME280;43090;52.604;13.318;2023-05-08T05:28:47;102255.44;;;8.28;79.38
57234;BME280;43090;52.604;13.318;2023-05-08T05:31:14;102250.97;;;8.04;76.84
57234;BME280;43090;52.604;13.318;2023-05-08T05:33:40;102237.88;;;8.21;78.61
57234;BME280;43090;52.604;13.318;2023-05-08T05:36:07;102252.34;;;8.39;79.35
57234;BME280;43090;52.604;13.318;2023-05-08T05:38:34;102236.72;;;8.05;77.12
57234;BME280;43090;52.604;13.318;2023-05-08T05:41:00;102248.53;;;7.97;76.87
57234;BME280;43090;52.604;13.318;2023-05-08T05:43:27;102242.59;;;8.38;76.67
57234;BME280;43090;52.604;13.318;2023-05-08T05:45:53;102247.09;;;8.61;76.86
57234;BME280;43090;52.604;13.318;2023-05-08T05:48:22;102234.47;;;8.41;77.23
57234;BME280;43090;52.604;13.318;2023-05-08T05:50:49;102245.81;;;8.48;74.00
57234;BME280;43090;52.604;13.318;2023-05-08T05:53:15;102249.97;;;8.31;70.62
57234;BME280;43090;52.604;13.318;2023-05-08T05:55:42;102251.22;;;8.46;73.01
57234;BME280;43090;52.604;13.318;2023-05-08T05:58:08;102234.31;;;8.70;72.93
57234;BME280;43090;52.604;13.318;2023-05-08T06:00:35;102249.75;;;8.85;73.07
57234;BME280;43090;52.604;13.318;2023-05-08T06:03:02;102242.22;;;8.95;70.73
57234;BME280;43090;52.604;13.318;2023-05-08T06:05:29;102243.38;;;9.10;69.91
57234;BME280;43090;52.604;13.318;2023-05-08T06:07:55;102252.97;;;8.93;70.80
57234;BME280;43090;52.604;13.318;2023-05-08T06:10:22;102243.09;;;8.73;71.30
57234;BME280;43090;52.604;13.318;2023-05-08T06:12:49;102262.03;;;8.89;67.90
57234;BME280;43090;52.604;13.318;2023-05-08T06:15:15;102217.59;;;8.64;70.68
57234;BME280;43090;52.604;13.318;2023-05-08T06:17:42;102229.91;;;8.91;68.03
57234;BME280;43090;52.604;13.318;2023-05-08T06:20:09;102261.34;;;9.28;67.22
57234;BME280;43090;52.604;13.318;2023-05-08T06:22:36;102266.00;;;9.23;67.98
57234;BME280;43090;52.604;13.318;2023-05-08T06:25:05;102258.28;;;9.38;67.51
57234;BME280;43090;52.604;13.318;2023-05-08T06:27:35;102262.38;;;9.04;69.99
57234;BME280;43090;52.604;13.318;2023-05-08T06:30:03;102277.06;;;9.36;66.98
57234;BME280;43090;52.604;13.318;2023-05-08T06:32:29;102271.09;;;9.29;65.28
57234;BME280;43090;52.604;13.318;2023-05-08T06:34:56;102255.22;;;9.26;67.90
57234;BME280;43090;52.604;13.318;2023-05-08T06:37:22;102253.69;;;9.41;67.58
57234;BME280;43090;52.604;13.318;2023-05-08T06:39:49;102275.72;;;9.69;67.13
57234;BME280;43090;52.604;13.318;2023-05-08T06:42:36;102259.28;;;9.35;66.90
57234;BME280;43090;52.604;13.318;2023-05-08T06:45:03;102267.88;;;9.43;65.42
57234;BME280;43090;52.604;13.318;2023-05-08T06:47:29;102266.41;;;9.77;66.28
57234;BME280;43090;52.604;13.318;2023-05-08T06:49:56;102262.13;;;9.53;63.68
57234;BME280;43090;52.604;13.318;2023-05-08T06:52:22;102269.88;;;9.59;63.97
57234;BME280;43090;52.604;13.318;2023-05-08T06:54:51;102276.53;;;9.91;63.14
57234;BME280;43090;52.604;13.318;2023-05-08T06:57:17;102269.88;;;10.21;61.07
57234;BME280;43090;52.604;13.318;2023-05-08T06:59:43;102267.53;;;10.33;60.69
57234;BME280;43090;52.604;13.318;2023-05-08T07:02:16;102231.38;;;10.23;59.94
57234;BME280;43090;52.604;13.318;2023-05-08T07:04:45;102256.84;;;11.27;57.98
57234;BME280;43090;52.604;13.318;2023-05-08T07:07:15;102233.97;;;11.38;57.72
57234;BME280;43090;52.604;13.318;2023-05-08T07:09:41;102253.94;;;12.02;54.18
57234;BME280;43090;52.604;13.318;2023-05-08T07:12:08;102227.97;;;12.36;49.75
57234;BME280;43090;52.604;13.318;2023-05-08T07:14:34;102245.47;;;13.23;50.27
57234;BME280;43090;52.604;13.318;2023-05-08T07:17:02;102270.16;;;14.21;48.33
57234;BME280;43090;52.604;13.318;2023-05-08T07:19:35;102272.09;;;13.28;50.83
57234;BME280;43090;52.604;13.318;2023-05-08T07:22:03;102263.28;;;13.10;51.26
57234;BME280;43090;52.604;13.318;2023-05-08T07:24:30;102257.19;;;13.22;48.78
57234;BME280;43090;52.604;13.318;2023-05-08T07:26:57;102258.59;;;12.81;48.87
57234;BME280;43090;52.604;13.318;2023-05-08T07:29:25;102266.22;;;12.89;51.34
57234;BME280;43090;52.604;13.318;2023-05-08T07:31:53;102267.44;;;12.83;53.24
57234;BME280;43090;52.604;13.318;2023-05-08T07:34:20;102246.66;;;12.22;51.09
57234;BME280;43090;52.604;13.318;2023-05-08T07:36:46;102261.50;;;13.41;50.85
57234;BME280;43090;52.604;13.318;2023-05-08T07:39:13;102275.53;;;14.07;47.96
57234;BME280;43090;52.604;13.318;2023-05-08T07:41:39;102272.53;;;13.36;49.29
57234;BME280;43090;52.604;13.318;2023-05-08T07:44:06;102253.63;;;13.06;49.56
57234;BME280;43090;52.604;13.318;2023-05-08T07:46:33;102266.78;;;14.18;44.85
57234;BME280;43090;52.604;13.318;2023-05-08T07:48:59;102256.44;;;14.96;44.37
57234;BME280;43090;52.604;13.318;2023-05-08T07:51:28;102250.88;;;16.06;40.83
57234;BME280;43090;52.604;13.318;2023-05-08T07:53:54;102247.75;;;15.19;43.85
57234;BME280;43090;52.604;13.318;2023-05-08T07:56:21;102251.41;;;15.85;41.63
57234;BME280;43090;52.604;13.318;2023-05-08T07:58:50;102255.06;;;15.44;40.90
57234;BME280;43090;52.604;13.318;2023-05-08T08:01:17;102248.81;;;15.16;41.54
57234;BME280;43090;52.604;13.318;2023-05-08T08:03:44;102242.97;;;15.09;40.71
57234;BME280;43090;52.604;13.318;2023-05-08T08:06:11;102240.91;;;14.44;44.02
57234;BME280;43090;52.604;13.318;2023-05-08T08:08:38;102250.84;;;13.70;43.59
57234;BME280;43090;52.604;13.318;2023-05-08T08:11:05;102250.94;;;13.38;46.95
57234;BME280;43090;52.604;13.318;2023-05-08T08:13:32;102238.16;;;13.25;46.96
57234;BME280;43090;52.604;13.318;2023-05-08T08:15:59;102252.09;;;13.48;45.41
57234;BME280;43090;52.604;13.318;2023-05-08T08:18:26;102240.19;;;13.38;43.55
57234;BME280;43090;52.604;13.318;2023-05-08T08:20:53;102242.25;;;13.32;46.89
57234;BME280;43090;52.604;13.318;2023-05-08T08:23:20;102240.00;;;13.41;45.87
57234;BME280;43090;52.604;13.318;2023-05-08T08:25:47;102253.09;;;13.15;45.36
57234;BME280;43090;52.604;13.318;2023-05-08T08:28:13;102240.84;;;13.25;44.96
57234;BME280;43090;52.604;13.318;2023-05-08T08:30:40;102252.34;;;13.59;46.13
57234;BME280;43090;52.604;13.318;2023-05-08T08:33:06;102247.38;;;13.68;45.54
57234;BME280;43090;52.604;13.318;2023-05-08T08:35:33;102234.81;;;13.82;44.66
57234;BME280;43090;52.604;13.318;2023-05-08T08:37:59;102242.81;;;14.27;44.51
57234;BME280;43090;52.604;13.318;2023-05-08T08:40:26;102223.97;;;14.13;42.43
57234;BME280;43090;52.604;13.318;2023-05-08T08:42:54;102241.28;;;14.38;44.29
57234;BME280;43090;52.604;13.318;2023-05-08T08:45:20;102230.09;;;15.00;41.75
57234;BME280;43090;52.604;13.318;2023-05-08T08:47:48;102224.84;;;15.39;38.49
57234;BME280;43090;52.604;13.318;2023-05-08T08:50:18;102237.19;;;15.15;39.77
57234;BME280;43090;52.604;13.318;2023-05-08T08:52:50;102234.19;;;14.93;40.61
57234;BME280;43090;52.604;13.318;2023-05-08T08:55:21;102239.63;;;14.49;43.13
57234;BME280;43090;52.604;13.318;2023-05-08T08:58:06;102243.22;;;14.50;44.47
57234;BME280;43090;52.604;13.318;2023-05-08T09:00:35;102212.56;;;14.51;40.45
57234;BME280;43090;52.604;13.318;2023-05-08T09:03:04;102226.38;;;14.32;41.14
57234;BME280;43090;52.604;13.318;2023-05-08T09:05:32;102227.22;;;14.47;40.51
57234;BME280;43090;52.604;13.318;2023-05-08T09:07:59;102228.00;;;14.63;40.02
57234;BME280;43090;52.604;13.318;2023-05-08T09:10:26;102216.16;;;14.52;39.93
57234;BME280;43090;52.604;13.318;2023-05-08T09:12:56;102227.78;;;14.66;41.08
57234;BME280;43090;52.604;13.318;2023-05-08T09:15:28;102221.63;;;14.64;42.15
57234;BME280;43090;52.604;13.318;2023-05-08T09:17:54;102210.44;;;14.71;39.30
57234;BME280;43090;52.604;13.318;2023-05-08T09:20:21;102224.72;;;14.73;41.11
57234;BME280;43090;52.604;13.318;2023-05-08T09:22:48;102217.59;;;14.43;37.52
57234;BME280;43090;52.604;13.318;2023-05-08T09:25:17;102218.94;;;14.64;38.62
57234;BME280;43090;52.604;13.318;2023-05-08T09:27:44;102243.44;;;14.89;41.50
57234;BME280;43090;52.604;13.318;2023-05-08T09:30:12;102218.53;;;14.71;40.95
57234;BME280;43090;52.604;13.318;2023-05-08T09:32:41;102216.16;;;14.93;40.84
57234;BME280;43090;52.604;13.318;2023-05-08T09:35:10;102204.41;;;15.35;39.70
57234;BME280;43090;52.604;13.318;2023-05-08T09:37:39;102225.31;;;15.45;37.75
57234;BME280;43090;52.604;13.318;2023-05-08T09:40:20;102225.16;;;15.34;40.06
57234;BME280;43090;52.604;13.318;2023-05-08T09:42:48;102224.47;;;15.30;40.73
57234;BME280;43090;52.604;13.318;2023-05-08T09:45:29;102210.34;;;15.27;41.70
57234;BME280;43090;52.604;13.318;2023-05-08T09:47:57;102206.16;;;15.36;40.77
57234;BME280;43090;52.604;13.318;2023-05-08T09:50:24;102206.94;;;15.38;40.62
57234;BME280;43090;52.604;13.318;2023-05-08T09:52:51;102208.28;;;15.30;39.25
57234;BME280;43090;52.604;13.318;2023-05-08T09:55:18;102205.44;;;15.59;41.65
57234;BME280;43090;52.604;13.318;2023-05-08T09:57:58;102211.41;;;15.77;39.62
57234;BME280;43090;52.604;13.318;2023-05-08T10:00:27;102215.03;;;15.63;37.64
57234;BME280;43090;52.604;13.318;2023-05-08T10:05:29;102208.34;;;15.56;38.08
57234;BME280;43090;52.604;13.318;2023-05-08T10:07:58;102214.59;;;15.44;39.09
57234;BME280;43090;52.604;13.318;2023-05-08T10:10:26;102190.41;;;15.42;36.65
57234;BME280;43090;52.604;13.318;2023-05-08T10:12:55;102197.78;;;15.66;40.78
57234;BME280;43090;52.604;13.318;2023-05-08T10:15:24;102213.34;;;15.62;38.60
57234;BME280;43090;52.604;13.318;2023-05-08T10:20:28;102208.09;;;15.99;38.98
57234;BME280;43090;52.604;13.318;2023-05-08T10:22:56;102203.66;;;15.98;37.32
57234;BME280;43090;52.604;13.318;2023-05-08T10:25:24;102198.81;;;15.38;38.33
57234;BME280;43090;52.604;13.318;2023-05-08T10:28:28;102197.25;;;15.74;36.22
57234;BME280;43090;52.604;13.318;2023-05-08T10:31:02;102201.06;;;15.97;38.91
57234;BME280;43090;52.604;13.318;2023-05-08T10:33:30;102179.88;;;16.04;36.95
57234;BME280;43090;52.604;13.318;2023-05-08T10:35:57;102169.94;;;16.04;36.59
57234;BME280;43090;52.604;13.318;2023-05-08T10:38:26;102175.50;;;16.40;36.27
57234;BME280;43090;52.604;13.318;2023-05-08T10:40:53;102186.13;;;16.17;36.15
57234;BME280;43090;52.604;13.318;2023-05-08T10:43:24;102173.63;;;15.90;37.01
57234;BME280;43090;52.604;13.318;2023-05-08T10:45:52;102183.31;;;16.31;36.60
57234;BME280;43090;52.604;13.318;2023-05-08T10:48:53;102178.84;;;16.43;37.04
57234;BME280;43090;52.604;13.318;2023-05-08T10:53:49;102160.38;;;16.24;36.73
57234;BME280;43090;52.604;13.318;2023-05-08T10:56:24;102172.88;;;16.51;37.69
57234;BME280;43090;52.604;13.318;2023-05-08T10:58:56;102167.47;;;16.51;37.70
57234;BME280;43090;52.604;13.318;2023-05-08T11:01:23;102167.75;;;16.59;36.92
57234;BME280;43090;52.604;13.318;2023-05-08T11:03:51;102167.91;;;16.45;36.58
57234;BME280;43090;52.604;13.318;2023-05-08T11:06:44;102167.75;;;16.59;34.20
57234;BME280;43090;52.604;13.318;2023-05-08T11:09:43;102164.16;;;16.59;36.73
57234;BME280;43090;52.604;13.318;2023-05-08T11:12:23;102158.88;;;16.57;34.11
57234;BME280;43090;52.604;13.318;2023-05-08T11:15:05;102162.34;;;16.59;37.35
57234;BME280;43090;52.604;13.318;2023-05-08T11:17:32;102169.16;;;16.52;35.94
57234;BME280;43090;52.604;13.318;2023-05-08T11:20:01;102160.22;;;16.52;37.13
57234;BME280;43090;52.604;13.318;2023-05-08T11:22:29;102158.97;;;16.69;34.92
57234;BME280;43090;52.604;13.318;2023-05-08T11:30:34;102148.78;;;16.72;33.47
57234;BME280;43090;52.604;13.318;2023-05-08T11:38:26;102143.41;;;17.08;36.56
57234;BME280;43090;52.604;13.318;2023-05-08T11:40:57;102145.13;;;16.97;36.82
57234;BME280;43090;52.604;13.318;2023-05-08T11:49:10;102130.31;;;16.90;35.18
57234;BME280;43090;52.604;13.318;2023-05-08T11:51:37;102095.44;;;16.74;36.54
57234;BME280;43090;52.604;13.318;2023-05-08T11:54:17;102109.06;;;16.97;32.99
57234;BME280;43090;52.604;13.318;2023-05-08T11:56:45;102110.34;;;17.04;34.85
57234;BME280;43090;52.604;13.318;2023-05-08T11:59:13;102121.53;;;17.11;36.26
57234;BME280;43090;52.604;13.318;2023-05-08T12:01:42;102112.16;;;17.04;33.92
57234;BME280;43090;52.604;13.318;2023-05-08T12:04:18;102109.72;;;16.76;36.12
57234;BME280;43090;52.604;13.318;2023-05-08T12:06:45;102122.78;;;17.07;34.26
57234;BME280;43090;52.604;13.318;2023-05-08T12:09:17;102105.44;;;17.09;37.16
57234;BME280;43090;52.604;13.318;2023-05-08T12:11:55;102116.84;;;17.02;32.10
57234;BME280;43090;52.604;13.318;2023-05-08T12:14:22;102114.00;;;17.03;37.59
57234;BME280;43090;52.604;13.318;2023-05-08T12:16:49;102124.91;;;17.26;34.68
57234;BME280;43090;52.604;13.318;2023-05-08T12:19:18;102130.72;;;17.55;32.62
57234;BME280;43090;52.604;13.318;2023-05-08T12:21:46;102126.56;;;17.62;33.76
57234;BME280;43090;52.604;13.318;2023-05-08T12:24:16;102123.00;;;17.51;34.31
57234;BME280;43090;52.604;13.318;2023-05-08T12:26:48;102116.22;;;17.56;34.33
57234;BME280;43090;52.604;13.318;2023-05-08T12:29:17;102114.59;;;17.31;34.04
57234;BME280;43090;52.604;13.318;2023-05-08T12:31:46;102115.88;;;17.14;31.76
57234;BME280;43090;52.604;13.318;2023-05-08T12:34:13;102111.44;;;17.02;33.74
57234;BME280;43090;52.604;13.318;2023-05-08T12:36:39;102122.25;;;17.60;35.94
57234;BME280;43090;52.604;13.318;2023-05-08T12:39:14;102114.97;;;17.38;31.17
57234;BME280;43090;52.604;13.318;2023-05-08T12:41:47;102114.19;;;17.36;30.88
57234;BME280;43090;52.604;13.318;2023-05-08T12:44:19;102105.34;;;17.34;33.35
57234;BME280;43090;52.604;13.318;2023-05-08T12:46:56;102098.22;;;17.32;31.94
57234;BME280;43090;52.604;13.318;2023-05-08T12:49:30;102094.06;;;17.40;33.00
57234;BME280;43090;52.604;13.318;2023-05-08T12:52:02;102097.25;;;17.45;32.94
57234;BME280;43090;52.604;13.318;2023-05-08T12:54:37;102094.91;;;17.86;32.54
57234;BME280;43090;52.604;13.318;2023-05-08T12:57:11;102078.06;;;17.71;35.58
57234;BME280;43090;52.604;13.318;2023-05-08T12:59:39;102087.41;;;17.78;32.50
57234;BME280;43090;52.604;13.318;2023-05-08T13:02:19;102079.66;;;17.73;35.64
57234;BME280;43090;52.604;13.318;2023-05-08T13:04:52;102085.56;;;17.90;32.11
57234;BME280;43090;52.604;13.318;2023-05-08T13:07:19;102093.88;;;18.43;31.22
57234;BME280;43090;52.604;13.318;2023-05-08T13:09:59;102081.22;;;18.33;34.45
57234;BME280;43090;52.604;13.318;2023-05-08T13:12:30;102061.16;;;18.24;34.37
57234;BME280;43090;52.604;13.318;2023-05-08T13:14:56;102055.03;;;17.99;33.13
57234;BME280;43090;52.604;13.318;2023-05-08T13:17:27;102069.41;;;18.22;30.11
57234;BME280;43090;52.604;13.318;2023-05-08T13:19:55;102060.44;;;17.99;32.80
57234;BME280;43090;52.604;13.318;2023-05-08T13:22:22;102058.47;;;17.90;33.85
57234;BME280;43090;52.604;13.318;2023-05-08T13:24:52;102051.91;;;18.15;30.93
57234;BME280;43090;52.604;13.318;2023-05-08T13:27:18;102060.81;;;18.17;32.23
57234;BME280;43090;52.604;13.318;2023-05-08T13:29:45;102056.53;;;18.47;30.71
57234;BME280;43090;52.604;13.318;2023-05-08T13:32:11;102041.59;;;18.09;29.91
57234;BME280;43090;52.604;13.318;2023-05-08T13:34:38;102047.53;;;17.69;30.90
57234;BME280;43090;52.604;13.318;2023-05-08T13:37:15;102031.66;;;17.98;30.34
57234;BME280;43090;52.604;13.318;2023-05-08T13:39:41;102041.00;;;18.05;30.32
57234;BME280;43090;52.604;13.318;2023-05-08T13:42:09;102043.78;;;18.15;31.53
57234;BME280;43090;52.604;13.318;2023-05-08T13:44:37;102013.38;;;18.44;33.59
57234;BME280;43090;52.604;13.318;2023-05-08T13:47:03;102036.59;;;18.37;34.71